createdAt,value
2022-12-24T00:01:06.559Z,100251.28
2022-12-24T00:03:34.282Z,100244.41
2022-12-24T00:06:04.905Z,100247.22
2022-12-24T00:08:31.852Z,100245.63
2022-12-24T00:11:00.120Z,100237.69
2022-12-24T00:13:27.163Z,100229.97
2022-12-24T00:15:54.065Z,100224.91
2022-12-24T00:18:20.978Z,100232.81
2022-12-24T00:20:49.274Z,100230.56
2022-12-24T00:23:17.234Z,100227.31
2022-12-24T00:25:45.447Z,100227.31
2022-12-24T00:28:15.295Z,100232.59
2022-12-24T00:30:43.424Z,100234.22
2022-12-24T00:33:10.723Z,100241.09
2022-12-24T00:35:40.296Z,100239.91
2022-12-24T00:38:08.486Z,100238.91
2022-12-24T00:40:36.055Z,100236.06
2022-12-24T00:43:03.403Z,100237.09
2022-12-24T00:45:31.609Z,100240.31
2022-12-24T00:47:58.646Z,100244.34
2022-12-24T00:50:25.545Z,100247.66
2022-12-24T00:52:52.415Z,100255.56
2022-12-24T00:55:20.041Z,100256.56
2022-12-24T00:57:47.003Z,100255.75
2022-12-24T01:00:17.385Z,100260.63
2022-12-24T01:02:46.005Z,100261.44
2022-12-24T01:05:13.364Z,100266.72
2022-12-24T01:07:44.726Z,100270.34
2022-12-24T01:10:14.405Z,100265.28
2022-12-24T01:12:41.432Z,100265.47
2022-12-24T01:15:11.864Z,100280.91
2022-12-24T01:17:39.654Z,100279.72
2022-12-24T01:20:14.555Z,100283.78
2022-12-24T01:22:41.824Z,100288.69
2022-12-24T01:25:09.765Z,100293.94
2022-12-24T01:27:36.909Z,100297.00
2022-12-24T01:30:05.470Z,100302.88
2022-12-24T01:32:32.372Z,100302.50
2022-12-24T01:34:59.859Z,100304.97
2022-12-24T01:37:28.142Z,100308.81
2022-12-24T01:40:15.026Z,100316.53
2022-12-24T01:43:06.638Z,100314.09
2022-12-24T01:45:55.935Z,100315.09
2022-12-24T01:48:34.762Z,100316.66
2022-12-24T01:51:08.993Z,100311.81
2022-12-24T01:53:42.522Z,100312.19
2022-12-24T01:56:11.614Z,100305.72
2022-12-24T01:58:43.346Z,100306.53
2022-12-24T02:01:10.486Z,100319.13
2022-12-24T02:03:37.835Z,100315.47
2022-12-24T02:06:06.341Z,100314.25
2022-12-24T02:08:40.022Z,100315.09
2022-12-24T02:11:14.794Z,100316.72
2022-12-24T02:13:45.050Z,100306.94
2022-12-24T02:16:32.412Z,100317.09
2022-12-24T02:19:21.635Z,100321.53
2022-12-24T02:21:59.717Z,100314.63
2022-12-24T02:25:04.866Z,100327.19
2022-12-24T02:27:54.487Z,100326.81
2022-12-24T02:30:28.075Z,100340.41
2022-12-24T02:33:20.347Z,100343.47
2022-12-24T02:35:56.012Z,100343.06
2022-12-24T02:38:30.914Z,100339.44
2022-12-24T02:41:03.811Z,100345.13
2022-12-24T02:43:38.380Z,100340.47
2022-12-24T02:46:13.716Z,100329.91
2022-12-24T02:48:44.415Z,100337.44
2022-12-24T02:51:12.168Z,100351.22
2022-12-24T02:53:40.303Z,100345.78
2022-12-24T02:56:34.739Z,100345.75
2022-12-24T02:59:28.650Z,100357.31
2022-12-24T03:02:11.663Z,100350.38
2022-12-24T03:04:55.263Z,100348.34
2022-12-24T03:07:29.524Z,100357.28
2022-12-24T03:10:12.120Z,100357.66
2022-12-24T03:12:44.942Z,100356.81
2022-12-24T03:15:17.355Z,100362.47
2022-12-24T03:17:49.798Z,100372.41
2022-12-24T03:20:25.562Z,100368.16
2022-12-24T03:22:52.885Z,100378.06
2022-12-24T03:25:24.066Z,100384.38
2022-12-24T03:27:52.028Z,100392.91
2022-12-24T03:30:20.120Z,100394.13
2022-12-24T03:32:48.370Z,100391.94
2022-12-24T03:35:15.371Z,100387.66
2022-12-24T03:37:42.296Z,100394.13
2022-12-24T03:40:10.439Z,100400.22
2022-12-24T03:42:37.619Z,100400.69
2022-12-24T03:45:05.945Z,100413.69
2022-12-24T03:47:32.813Z,100412.72
2022-12-24T03:50:01.147Z,100402.81
2022-12-24T03:52:28.530Z,100405.69
2022-12-24T03:54:55.415Z,100409.38
2022-12-24T03:57:22.309Z,100402.09
2022-12-24T03:59:49.249Z,100397.00
2022-12-24T04:02:16.707Z,100412.25
2022-12-24T04:04:43.782Z,100408.94
2022-12-24T04:07:12.083Z,100416.44
2022-12-24T04:09:40.488Z,100418.38
2022-12-24T04:12:08.069Z,100421.03
2022-12-24T04:14:34.965Z,100426.75
2022-12-24T04:17:01.924Z,100429.41
2022-12-24T04:19:29.257Z,100434.13
2022-12-24T04:21:56.250Z,100423.19
2022-12-24T04:24:24.624Z,100439.03
2022-12-24T04:26:51.604Z,100436.16
2022-12-24T04:29:18.460Z,100434.97
2022-12-24T04:31:45.439Z,100439.88
2022-12-24T04:34:12.345Z,100448.19
2022-12-24T04:36:39.188Z,100448.63
2022-12-24T04:39:06.055Z,100439.13
2022-12-24T04:41:34.509Z,100448.88
2022-12-24T04:44:01.387Z,100462.06
2022-12-24T04:46:32.500Z,100451.31
2022-12-24T04:49:00.628Z,100456.78
2022-12-24T04:51:28.856Z,100454.78
2022-12-24T04:53:57.149Z,100465.13
2022-12-24T04:56:26.865Z,100464.50
2022-12-24T04:58:55.989Z,100461.47
2022-12-24T05:01:26.823Z,100452.50
2022-12-24T05:03:55.314Z,100448.50
2022-12-24T05:06:25.084Z,100461.72
2022-12-24T05:08:55.669Z,100457.47
2022-12-24T05:11:23.334Z,100463.78
2022-12-24T05:13:50.636Z,100465.03
2022-12-24T05:16:22.125Z,100469.09
2022-12-24T05:18:49.404Z,100469.75
2022-12-24T05:21:19.875Z,100472.19
2022-12-24T05:24:05.143Z,100467.72
2022-12-24T05:26:36.959Z,100466.06
2022-12-24T05:29:05.837Z,100467.72
2022-12-24T05:31:34.477Z,100488.44
2022-12-24T05:34:03.095Z,100482.81
2022-12-24T05:36:30.712Z,100484.25
2022-12-24T05:38:58.005Z,100481.38
2022-12-24T05:41:25.963Z,100483.03
2022-12-24T05:43:52.909Z,100488.94
2022-12-24T05:46:23.279Z,100495.44
2022-12-24T05:48:52.967Z,100497.69
2022-12-24T05:51:22.426Z,100509.69
2022-12-24T05:53:50.872Z,100510.31
2022-12-24T05:56:20.939Z,100516.22
2022-12-24T05:58:48.182Z,100517.66
2022-12-24T06:01:16.151Z,100510.53
2022-12-24T06:03:43.185Z,100518.09
2022-12-24T06:06:14.588Z,100512.19
2022-12-24T06:08:42.591Z,100516.88
2022-12-24T06:11:13.148Z,100511.00
2022-12-24T06:13:41.930Z,100522.84
2022-12-24T06:16:12.017Z,100523.66
2022-12-24T06:18:39.438Z,100514.31
2022-12-24T06:21:07.543Z,100525.94
2022-12-24T06:23:39.624Z,100530.63
2022-12-24T06:26:08.020Z,100533.88
2022-12-24T06:28:37.681Z,100533.47
2022-12-24T06:31:07.141Z,100556.69
2022-12-24T06:33:34.709Z,100541.22
2022-12-24T06:36:02.069Z,100552.41
2022-12-24T06:38:31.129Z,100556.31
2022-12-24T06:41:00.045Z,100554.28
2022-12-24T06:43:26.920Z,100557.53
2022-12-24T06:45:53.793Z,100560.56
2022-12-24T06:48:20.651Z,100564.88
2022-12-24T06:50:47.749Z,100555.50
2022-12-24T06:53:14.635Z,100559.56
2022-12-24T06:55:41.647Z,100557.91
2022-12-24T06:58:09.957Z,100561.59
2022-12-24T07:00:36.985Z,100574.19
2022-12-24T07:03:04.244Z,100580.69
2022-12-24T07:05:31.178Z,100585.59
2022-12-24T07:07:58.038Z,100592.91
2022-12-24T07:10:24.988Z,100607.53
2022-12-24T07:12:51.882Z,100617.50
2022-12-24T07:15:20.241Z,100616.50
2022-12-24T07:17:47.176Z,100626.03
2022-12-24T07:20:15.285Z,100646.81
2022-12-24T07:22:42.792Z,100649.91
2022-12-24T07:25:11.432Z,100640.53
2022-12-24T07:27:39.195Z,100635.28
2022-12-24T07:30:08.696Z,100647.72
2022-12-24T07:32:36.916Z,100645.28
2022-12-24T07:35:04.596Z,100651.19
2022-12-24T07:37:31.473Z,100650.81
2022-12-24T07:39:58.361Z,100656.09
2022-12-24T07:42:26.519Z,100661.19
2022-12-24T07:44:53.429Z,100663.00
2022-12-24T07:47:20.272Z,100661.19
2022-12-24T07:49:48.491Z,100657.72
2022-12-24T07:52:16.094Z,100663.00
2022-12-24T07:54:43.004Z,100659.75
2022-12-24T07:57:10.063Z,100670.34
2022-12-24T07:59:36.967Z,100675.44
2022-12-24T08:02:04.102Z,100686.63
2022-12-24T08:04:32.307Z,100674.22
2022-12-24T08:07:00.520Z,100686.06
2022-12-24T08:09:27.404Z,100693.56
2022-12-24T08:11:54.244Z,100708.25
2022-12-24T08:14:21.329Z,100708.47
2022-12-24T08:16:48.244Z,100710.72
2022-12-24T08:19:16.544Z,100709.50
2022-12-24T08:21:43.451Z,100714.81
2022-12-24T08:24:11.682Z,100716.25
2022-12-24T08:26:38.692Z,100718.72
2022-12-24T08:29:06.855Z,100718.88
2022-12-24T08:31:36.467Z,100725.81
2022-12-24T08:34:04.095Z,100730.13
2022-12-24T08:36:31.045Z,100736.22
2022-12-24T08:38:58.180Z,100738.69
2022-12-24T08:41:26.492Z,100742.16
2022-12-24T08:43:53.364Z,100755.19
2022-12-24T08:46:20.272Z,100761.69
2022-12-24T08:48:47.454Z,100762.97
2022-12-24T08:51:14.426Z,100760.94
2022-12-24T08:53:41.571Z,100755.63
2022-12-24T08:56:10.297Z,100764.19
2022-12-24T08:58:38.946Z,100769.09
2022-12-24T09:01:13.773Z,100769.50
2022-12-24T09:03:41.649Z,100766.63
2022-12-24T09:06:09.966Z,100769.94
2022-12-24T09:08:37.967Z,100788.66
2022-12-24T09:11:06.683Z,100789.91
2022-12-24T09:13:34.128Z,100789.50
2022-12-24T09:16:03.387Z,100790.13
2022-12-24T09:18:31.317Z,100782.81
2022-12-24T09:21:02.810Z,100801.97
2022-12-24T09:23:30.773Z,100809.91
2022-12-24T09:25:57.994Z,100803.00
2022-12-24T09:28:25.049Z,100804.63
2022-12-24T09:30:58.145Z,100809.94
2022-12-24T09:33:27.553Z,100806.28
2022-12-24T09:35:54.924Z,100820.97
2022-12-24T09:38:22.906Z,100830.56
2022-12-24T09:40:51.962Z,100833.22
2022-12-24T09:43:21.737Z,100844.25
2022-12-24T09:46:06.324Z,100836.91
2022-12-24T09:48:39.652Z,100843.44
2022-12-24T09:51:10.375Z,100844.44
2022-12-24T09:53:43.714Z,100852.00
2022-12-24T09:56:17.277Z,100858.53
2022-12-24T09:58:48.689Z,100864.25
2022-12-24T10:01:18.203Z,100861.06
2022-12-24T10:03:47.417Z,100858.81
2022-12-24T10:06:26.831Z,100863.28
2022-12-24T10:09:15.630Z,100866.34
2022-12-24T10:11:53.911Z,100878.78
2022-12-24T10:14:38.505Z,100871.03
2022-12-24T10:17:27.531Z,100871.41
2022-12-24T10:20:13.133Z,100868.78
2022-12-24T10:22:59.133Z,100875.72
2022-12-24T10:25:33.993Z,100880.19
2022-12-24T10:28:03.739Z,100882.44
2022-12-24T10:30:30.652Z,100882.03
2022-12-24T10:32:57.590Z,100881.22
2022-12-24T10:35:32.222Z,100889.59
2022-12-24T10:37:59.137Z,100890.81
2022-12-24T10:40:35.779Z,100894.91
2022-12-24T10:43:13.620Z,100893.72
2022-12-24T10:45:46.411Z,100888.19
2022-12-24T10:48:25.574Z,100896.97
2022-12-24T10:51:02.715Z,100902.66
2022-12-24T10:53:41.682Z,100903.09
2022-12-24T10:56:13.649Z,100904.50
2022-12-24T10:58:45.438Z,100909.22
2022-12-24T11:01:13.695Z,100916.56
2022-12-24T11:03:42.339Z,100913.31
2022-12-24T11:06:13.310Z,100911.66
2022-12-24T11:08:44.222Z,100909.22
2022-12-24T11:11:16.390Z,100901.06
2022-12-24T11:13:52.301Z,100901.88
2022-12-24T11:16:26.445Z,100903.91
2022-12-24T11:18:57.549Z,100905.53
2022-12-24T11:21:29.696Z,100910.84
2022-12-24T11:23:59.886Z,100912.28
2022-12-24T11:26:30.520Z,100909.63
2022-12-24T11:29:16.857Z,100912.28
2022-12-24T11:31:46.030Z,100912.47
2022-12-24T11:34:26.127Z,100903.06
2022-12-24T11:37:14.136Z,100905.13
2022-12-24T11:39:47.271Z,100899.38
2022-12-24T11:42:30.993Z,100905.28
2022-12-24T11:45:02.229Z,100897.47
2022-12-24T11:47:35.437Z,100905.84
2022-12-24T11:50:25.579Z,100897.22
2022-12-24T11:53:04.894Z,100915.22
2022-12-24T11:55:44.517Z,100913.44
2022-12-24T11:58:25.741Z,100906.28
2022-12-24T12:01:02.837Z,100914.03
2022-12-24T12:03:38.212Z,100909.97
2022-12-24T12:06:23.832Z,100911.00
2022-12-24T12:08:58.947Z,100927.34
2022-12-24T12:11:28.856Z,100924.69
2022-12-24T12:13:59.953Z,100923.47
2022-12-24T12:16:55.357Z,100928.38
2022-12-24T12:19:25.713Z,100927.16
2022-12-24T12:21:52.798Z,100933.91
2022-12-24T12:24:32.293Z,100939.03
2022-12-24T12:27:12.855Z,100942.91
2022-12-24T12:29:46.959Z,100943.72
2022-12-24T12:32:26.025Z,100944.56
2022-12-24T12:35:04.031Z,100949.44
2022-12-24T12:37:38.136Z,100951.31
2022-12-24T12:40:15.205Z,100951.72
2022-12-24T12:42:57.870Z,100951.47
2022-12-24T12:45:43.701Z,100955.59
2022-12-24T12:48:33.946Z,100952.50
2022-12-24T12:51:10.947Z,100949.84
2022-12-24T12:53:59.166Z,100950.28
2022-12-24T12:56:33.103Z,100954.16
2022-12-24T12:59:08.150Z,100946.56
2022-12-24T13:01:46.828Z,100959.25
2022-12-24T13:05:00.634Z,100961.28
2022-12-24T13:08:04.614Z,100963.56
2022-12-24T13:11:00.572Z,100967.22
2022-12-24T13:13:53.918Z,100968.25
2022-12-24T13:16:46.888Z,100963.72
2022-12-24T13:19:47.081Z,100959.06
2022-12-24T13:22:17.597Z,100964.34
2022-12-24T13:24:52.046Z,100971.09
2022-12-24T13:27:24.942Z,100978.66
2022-12-24T13:30:06.949Z,100981.94
2022-12-24T13:32:55.124Z,100981.50
2022-12-24T13:35:38.725Z,100981.94
2022-12-24T13:38:43.381Z,100977.25
2022-12-24T13:41:58.415Z,100979.91
2022-12-24T13:44:32.650Z,100987.25
2022-12-24T13:47:25.441Z,100997.25
2022-12-24T13:49:58.763Z,101000.31
2022-12-24T13:52:30.797Z,100999.09
2022-12-24T13:55:14.686Z,101006.88
2022-12-24T13:57:52.261Z,101010.94
2022-12-24T14:00:34.534Z,101019.50
2022-12-24T14:03:31.333Z,101017.06
2022-12-24T14:06:02.678Z,101015.03
2022-12-24T14:08:37.535Z,101021.34
2022-12-24T14:11:12.536Z,101025.03
2022-12-24T14:14:12.131Z,101026.88
2022-12-24T14:16:47.602Z,101032.78
2022-12-24T14:19:21.278Z,101030.53
2022-12-24T14:21:57.903Z,101023.59
2022-12-24T14:24:30.892Z,101024.00
2022-12-24T14:27:06.346Z,101032.97
2022-12-24T14:29:42.655Z,101032.56
2022-12-24T14:32:16.089Z,101045.19
2022-12-24T14:34:44.646Z,101057.44
2022-12-24T14:37:13.913Z,101052.53
2022-12-24T14:39:47.892Z,101054.13
2022-12-24T14:42:35.980Z,101062.47
2022-12-24T14:45:18.147Z,101069.59
2022-12-24T14:47:56.384Z,101087.91
2022-12-24T14:50:46.045Z,101088.31
2022-12-24T14:53:34.705Z,101096.66
2022-12-24T14:56:14.454Z,101103.34
2022-12-24T14:58:44.158Z,101108.66
2022-12-24T15:01:25.139Z,101115.59
2022-12-24T15:04:04.471Z,101104.34
2022-12-24T15:06:37.808Z,101109.84
2022-12-24T15:09:05.818Z,101117.56
2022-12-24T15:11:32.870Z,101120.00
2022-12-24T15:14:00.634Z,101116.28
2022-12-24T15:16:34.172Z,101127.47
2022-12-24T15:19:06.045Z,101134.16
2022-12-24T15:21:41.098Z,101140.22
2022-12-24T15:24:25.876Z,101141.41
2022-12-24T15:26:52.958Z,101154.03
2022-12-24T15:29:24.663Z,101161.72
2022-12-24T15:31:57.944Z,101164.13
2022-12-24T15:34:30.242Z,101158.56
2022-12-24T15:37:12.319Z,101167.28
2022-12-24T15:39:40.853Z,101166.84
2022-12-24T15:42:14.648Z,101169.06
2022-12-24T15:44:49.494Z,101168.81
2022-12-24T15:47:21.442Z,101170.81
2022-12-24T15:49:52.371Z,101174.84
2022-12-24T15:52:24.855Z,101181.34
2022-12-24T15:54:57.797Z,101175.59
2022-12-24T15:57:30.823Z,101179.63
2022-12-24T16:00:00.300Z,101186.91
2022-12-24T16:02:39.643Z,101190.94
2022-12-24T16:05:35.644Z,101188.03
2022-12-24T16:08:26.103Z,101200.63
2022-12-24T16:11:11.570Z,101198.97
2022-12-24T16:13:41.301Z,101198.63
2022-12-24T16:16:12.595Z,101205.19
2022-12-24T16:18:51.533Z,101210.94
2022-12-24T16:21:24.195Z,101218.34
2022-12-24T16:23:55.797Z,101220.22
2022-12-24T16:26:23.061Z,101224.59
2022-12-24T16:28:50.118Z,101233.25
2022-12-24T16:31:19.484Z,101237.44
2022-12-24T16:33:46.941Z,101234.22
2022-12-24T16:36:14.524Z,101228.97
2022-12-24T16:38:59.863Z,101228.59
2022-12-24T16:41:28.098Z,101236.34
2022-12-24T16:43:55.026Z,101233.53
2022-12-24T16:46:21.983Z,101231.50
2022-12-24T16:48:49.528Z,101235.97
2022-12-24T16:51:16.467Z,101237.63
2022-12-24T16:53:43.378Z,101244.38
2022-12-24T16:56:10.257Z,101248.66
2022-12-24T16:58:38.603Z,101244.59
2022-12-24T17:01:09.726Z,101243.81
2022-12-24T17:03:37.254Z,101251.56
2022-12-24T17:06:06.352Z,101251.56
2022-12-24T17:08:33.298Z,101258.53
2022-12-24T17:11:00.231Z,101273.59
2022-12-24T17:13:27.132Z,101271.13
2022-12-24T17:15:55.379Z,101275.41
2022-12-24T17:18:22.355Z,101269.50
2022-12-24T17:20:58.525Z,101275.78
2022-12-24T17:23:25.749Z,101273.13
2022-12-24T17:25:52.709Z,101281.91
2022-12-24T17:28:19.624Z,101281.72
2022-12-24T17:30:46.598Z,101285.41
2022-12-24T17:33:15.238Z,101287.03
2022-12-24T17:35:43.698Z,101283.75
2022-12-24T17:38:10.561Z,101288.63
2022-12-24T17:40:37.452Z,101293.09
2022-12-24T17:43:04.432Z,101286.13
2022-12-24T17:45:31.441Z,101288.78
2022-12-24T17:47:58.322Z,101300.41
2022-12-24T17:50:26.687Z,101291.84
2022-12-24T17:52:53.608Z,101303.63
2022-12-24T17:55:22.435Z,101311.75
2022-12-24T17:57:49.328Z,101303.16
2022-12-24T18:00:18.093Z,101305.19
2022-12-24T18:02:45.128Z,101316.78
2022-12-24T18:05:12.067Z,101308.84
2022-12-24T18:07:40.338Z,101314.13
2022-12-24T18:10:09.345Z,101314.13
2022-12-24T18:12:36.256Z,101316.16
2022-12-24T18:15:03.453Z,101315.34
2022-12-24T18:17:30.370Z,101319.19
2022-12-24T18:19:57.505Z,101319.56
2022-12-24T18:22:24.457Z,101317.28
2022-12-24T18:24:52.950Z,101320.94
2022-12-24T18:27:19.865Z,101324.59
2022-12-24T18:29:46.752Z,101326.63
2022-12-24T18:32:16.759Z,101321.69
2022-12-24T18:34:43.763Z,101321.03
2022-12-24T18:37:10.674Z,101326.34
2022-12-24T18:39:37.575Z,101329.00
2022-12-24T18:42:05.919Z,101324.53
2022-12-24T18:44:32.807Z,101323.50
2022-12-24T18:46:59.870Z,101321.69
2022-12-24T18:49:27.116Z,101326.97
2022-12-24T18:51:54.027Z,101322.50
2022-12-24T18:54:20.981Z,101321.25
2022-12-24T18:56:51.310Z,101324.06
2022-12-24T18:59:19.539Z,101325.25
2022-12-24T19:01:46.765Z,101324.25
2022-12-24T19:04:15.010Z,101331.38
2022-12-24T19:06:45.836Z,101330.38
2022-12-24T19:09:16.214Z,101328.53
2022-12-24T19:11:43.087Z,101328.53
2022-12-24T19:14:12.986Z,101333.03
2022-12-24T19:16:41.483Z,101326.91
2022-12-24T19:19:11.292Z,101330.53
2022-12-24T19:21:38.295Z,101334.59
2022-12-24T19:24:10.254Z,101330.84
2022-12-24T19:26:37.852Z,101324.59
2022-12-24T19:29:04.853Z,101330.66
2022-12-24T19:31:32.449Z,101336.84
2022-12-24T19:34:00.825Z,101332.94
2022-12-24T19:36:30.506Z,101327.53
2022-12-24T19:38:58.967Z,101342.50
2022-12-24T19:41:28.666Z,101348.03
2022-12-24T19:43:58.188Z,101346.03
2022-12-24T19:46:28.416Z,101346.84
2022-12-24T19:48:58.185Z,101353.22
2022-12-24T19:51:28.708Z,101359.53
2022-12-24T19:53:57.120Z,101362.25
2022-12-24T19:56:27.527Z,101365.31
2022-12-24T19:58:55.470Z,101369.00
2022-12-24T20:01:25.501Z,101364.25
2022-12-24T20:03:53.898Z,101377.31
2022-12-24T20:06:24.091Z,101377.00
2022-12-24T20:08:52.697Z,101384.44
2022-12-24T20:11:22.126Z,101375.13
2022-12-24T20:13:48.996Z,101377.44
2022-12-24T20:16:20.953Z,101387.56
2022-12-24T20:18:52.077Z,101392.34
2022-12-24T20:21:19.362Z,101406.72
2022-12-24T20:23:46.675Z,101405.94
2022-12-24T20:26:17.869Z,101412.22
2022-12-24T20:28:45.814Z,101416.19
2022-12-24T20:31:16.180Z,101414.91
2022-12-24T20:33:44.303Z,101418.72
2022-12-24T20:36:12.373Z,101419.88
2022-12-24T20:38:39.929Z,101425.97
2022-12-24T20:41:09.540Z,101426.50
2022-12-24T20:43:45.015Z,101426.31
2022-12-24T20:46:14.414Z,101425.34
2022-12-24T20:48:41.754Z,101433.75
2022-12-24T20:51:19.351Z,101431.63
2022-12-24T20:53:51.133Z,101440.56
2022-12-24T20:56:18.617Z,101445.66
2022-12-24T20:58:46.943Z,101448.78
2022-12-24T21:01:17.863Z,101451.94
2022-12-24T21:03:45.456Z,101458.53
2022-12-24T21:06:13.705Z,101454.44
2022-12-24T21:08:40.573Z,101453.44
2022-12-24T21:11:33.047Z,101452.28
2022-12-24T21:14:01.992Z,101457.22
2022-12-24T21:16:30.894Z,101454.06
2022-12-24T21:18:58.043Z,101450.94
2022-12-24T21:21:25.210Z,101452.09
2022-12-24T21:23:52.583Z,101460.19
2022-12-24T21:26:19.634Z,101461.00
2022-12-24T21:28:46.655Z,101466.59
2022-12-24T21:31:15.577Z,101469.34
2022-12-24T21:33:42.934Z,101462.59
2022-12-24T21:36:11.808Z,101456.66
2022-12-24T21:38:39.107Z,101453.19
2022-12-24T21:41:08.928Z,101455.84
2022-12-24T21:43:37.444Z,101457.81
2022-12-24T21:46:07.879Z,101456.19
2022-12-24T21:48:55.467Z,101454.53
2022-12-24T21:51:23.822Z,101442.81
2022-12-24T21:54:09.689Z,101439.69
2022-12-24T21:56:56.281Z,101438.03
2022-12-24T21:59:26.850Z,101437.72
2022-12-24T22:01:55.121Z,101437.03
2022-12-24T22:04:24.063Z,101439.66
2022-12-24T22:07:09.761Z,101434.56
2022-12-24T22:09:57.056Z,101434.88
2022-12-24T22:12:25.039Z,101429.13
2022-12-24T22:14:52.020Z,101433.06
2022-12-24T22:17:24.726Z,101432.75
2022-12-24T22:19:53.959Z,101433.72
2022-12-24T22:22:21.630Z,101430.25
2022-12-24T22:24:48.618Z,101433.72
2022-12-24T22:27:15.565Z,101437.31
2022-12-24T22:29:42.498Z,101430.41
2022-12-24T22:32:09.592Z,101421.84
2022-12-24T22:34:36.635Z,101423.84
2022-12-24T22:37:04.872Z,101417.59
2022-12-24T22:39:31.833Z,101419.88
2022-12-24T22:41:58.713Z,101416.28
2022-12-24T22:44:25.786Z,101428.63
2022-12-24T22:46:52.816Z,101421.84
2022-12-24T22:49:19.778Z,101413.94
2022-12-24T22:51:46.709Z,101414.31
2022-12-24T22:54:15.841Z,101414.63
2022-12-24T22:56:42.998Z,101417.38
2022-12-24T22:59:13.767Z,101424.50
2022-12-24T23:01:43.747Z,101420.84
2022-12-24T23:04:12.425Z,101418.19
2022-12-24T23:06:39.952Z,101418.50
2022-12-24T23:09:10.541Z,101413.56
2022-12-24T23:11:39.431Z,101424.41
2022-12-24T23:14:25.178Z,101426.72
2022-12-24T23:16:52.125Z,101418.97
2022-12-24T23:19:19.025Z,101427.38
2022-12-24T23:21:45.930Z,101438.72
2022-12-24T23:24:12.965Z,101445.50
2022-12-24T23:26:41.228Z,101457.00
2022-12-24T23:29:08.135Z,101451.06
2022-12-24T23:31:35.238Z,101451.59
2022-12-24T23:34:02.232Z,101457.34
2022-12-24T23:36:29.751Z,101448.47
2022-12-24T23:38:57.520Z,101466.25
2022-12-24T23:41:24.511Z,101465.91
2022-12-24T23:43:53.177Z,101460.78
2022-12-24T23:46:21.126Z,101459.28
2022-12-24T23:48:48.785Z,101457.66
2022-12-24T23:51:19.839Z,101454.34
2022-12-24T23:53:46.783Z,101448.25
2022-12-24T23:56:13.887Z,101446.44
2022-12-24T23:58:42.470Z,101446.44
